sensor_id;sensor_type;location;lat;lon;timestamp;temperature;humidity
54824;DHT22;40724;53.196;5.980;2023-09-19T00:18:25;19.70;99.30
54824;DHT22;40724;53.196;5.980;2023-09-19T00:20:58;18.60;98.00
54824;DHT22;40724;53.196;5.980;2023-09-19T00:23:24;18.50;98.00
54824;DHT22;40724;53.196;5.980;2023-09-19T00:25:50;18.40;97.90
54824;DHT22;40724;53.196;5.980;2023-09-19T07:45:04;18.40;97.90
54824;DHT22;40724;53.196;5.980;2023-09-19T07:47:30;17.70;96.00
54824;DHT22;40724;53.196;5.980;2023-09-19T07:49:58;17.60;95.90
54824;DHT22;40724;53.196;5.980;2023-09-19T07:52:25;17.70;95.90
54824;DHT22;40724;53.196;5.980;2023-09-19T07:54:53;17.70;95.90
54824;DHT22;40724;53.196;5.980;2023-09-19T07:57:19;17.70;95.90
54824;DHT22;40724;53.196;5.980;2023-09-19T07:59:45;17.80;95.90
54824;DHT22;40724;53.196;5.980;2023-09-19T08:02:11;17.80;96.10
54824;DHT22;40724;53.196;5.980;2023-09-19T08:04:45;17.80;95.80
54824;DHT22;40724;53.196;5.980;2023-09-19T08:07:14;17.90;95.80
54824;DHT22;40724;53.196;5.980;2023-09-19T08:09:40;17.90;95.80
54824;DHT22;40724;53.196;5.980;2023-09-19T08:12:07;17.90;95.80
54824;DHT22;40724;53.196;5.980;2023-09-19T08:14:36;17.90;95.80
54824;DHT22;40724;53.196;5.980;2023-09-19T08:17:03;17.80;95.80
54824;DHT22;40724;53.196;5.980;2023-09-19T08:19:31;17.90;95.80
54824;DHT22;40724;53.196;5.980;2023-09-19T08:21:57;17.90;95.80
54824;DHT22;40724;53.196;5.980;2023-09-19T08:24:30;18.00;95.80
54824;DHT22;40724;53.196;5.980;2023-09-19T08:26:56;18.00;95.80
54824;DHT22;40724;53.196;5.980;2023-09-19T08:29:23;18.00;95.80
54824;DHT22;40724;53.196;5.980;2023-09-19T08:31:58;18.00;95.80
54824;DHT22;40724;53.196;5.980;2023-09-19T08:34:24;18.10;95.80
54824;DHT22;40724;53.196;5.980;2023-09-19T08:36:51;18.10;95.80
54824;DHT22;40724;53.196;5.980;2023-09-19T08:39:18;18.10;95.80
54824;DHT22;40724;53.196;5.980;2023-09-19T08:41:45;18.10;95.80
54824;DHT22;40724;53.196;5.980;2023-09-19T08:44:10;18.20;95.80
54824;DHT22;40724;53.196;5.980;2023-09-19T08:46:40;18.20;95.80
54824;DHT22;40724;53.196;5.980;2023-09-19T08:49:28;18.20;95.80
54824;DHT22;40724;53.196;5.980;2023-09-19T08:52:10;18.30;95.90
54824;DHT22;40724;53.196;5.980;2023-09-19T08:54:40;18.40;95.90
54824;DHT22;40724;53.196;5.980;2023-09-19T08:57:07;18.40;95.80
54824;DHT22;40724;53.196;5.980;2023-09-19T08:59:40;18.50;95.80
54824;DHT22;40724;53.196;5.980;2023-09-19T09:26:59;18.50;95.80
54824;DHT22;40724;53.196;5.980;2023-09-19T09:29:43;19.30;95.50
54824;DHT22;40724;53.196;5.980;2023-09-19T09:34:58;19.40;95.50
54824;DHT22;40724;53.196;5.980;2023-09-19T09:39:55;19.50;95.40
54824;DHT22;40724;53.196;5.980;2023-09-19T09:42:32;19.70;95.40
54824;DHT22;40724;53.196;5.980;2023-09-19T10:06:00;19.80;95.30
54824;DHT22;40724;53.196;5.980;2023-09-19T11:59:48;20.30;95.20
54824;DHT22;40724;53.196;5.980;2023-09-19T12:02:35;20.00;95.30
54824;DHT22;40724;53.196;5.980;2023-09-19T12:05:05;19.90;95.50
54824;DHT22;40724;53.196;5.980;2023-09-19T12:07:45;19.90;95.60
54824;DHT22;40724;53.196;5.980;2023-09-19T12:10:12;19.80;95.80
54824;DHT22;40724;53.196;5.980;2023-09-19T12:12:40;19.80;95.90
54824;DHT22;40724;53.196;5.980;2023-09-19T12:15:08;19.80;96.10
54824;DHT22;40724;53.196;5.980;2023-09-19T12:20:03;19.80;96.30
54824;DHT22;40724;53.196;5.980;2023-09-19T12:22:55;19.80;96.40
54824;DHT22;40724;53.196;5.980;2023-09-19T12:25:21;19.90;96.50
54824;DHT22;40724;53.196;5.980;2023-09-19T12:27:48;19.90;96.60
54824;DHT22;40724;53.196;5.980;2023-09-19T12:30:28;19.90;96.60
54824;DHT22;40724;53.196;5.980;2023-09-19T12:32:54;19.90;96.60
54824;DHT22;40724;53.196;5.980;2023-09-19T12:35:32;20.00;96.70
54824;DHT22;40724;53.196;5.980;2023-09-19T12:38:01;20.00;96.70
54824;DHT22;40724;53.196;5.980;2023-09-19T12:40:29;20.00;96.70
54824;DHT22;40724;53.196;5.980;2023-09-19T12:42:59;19.90;96.70
54824;DHT22;40724;53.196;5.980;2023-09-19T12:45:26;19.90;96.70
54824;DHT22;40724;53.196;5.980;2023-09-19T12:48:24;19.90;96.80
54824;DHT22;40724;53.196;5.980;2023-09-19T12:51:06;19.90;96.80
54824;DHT22;40724;53.196;5.980;2023-09-19T12:53:34;19.80;96.70
54824;DHT22;40724;53.196;5.980;2023-09-19T12:56:03;19.80;96.70
54824;DHT22;40724;53.196;5.980;2023-09-19T12:58:35;19.80;96.80
54824;DHT22;40724;53.196;5.980;2023-09-19T13:01:16;19.70;96.90
54824;DHT22;40724;53.196;5.980;2023-09-19T13:03:42;19.70;96.90
54824;DHT22;40724;53.196;5.980;2023-09-19T13:06:08;19.70;97.00
54824;DHT22;40724;53.196;5.980;2023-09-19T13:08:37;19.70;97.10
54824;DHT22;40724;53.196;5.980;2023-09-19T13:11:12;19.70;97.20
54824;DHT22;40724;53.196;5.980;2023-09-19T13:13:49;19.70;97.30
54824;DHT22;40724;53.196;5.980;2023-09-19T13:16:19;19.70;97.30
54824;DHT22;40724;53.196;5.980;2023-09-19T13:18:53;19.70;97.30
54824;DHT22;40724;53.196;5.980;2023-09-19T13:21:34;19.70;97.30
54824;DHT22;40724;53.196;5.980;2023-09-19T13:24:22;19.70;97.40
54824;DHT22;40724;53.196;5.980;2023-09-19T13:26:51;19.70;97.50
54824;DHT22;40724;53.196;5.980;2023-09-19T13:29:17;19.60;97.40
54824;DHT22;40724;53.196;5.980;2023-09-19T13:31:51;19.60;97.40
54824;DHT22;40724;53.196;5.980;2023-09-19T13:34:19;19.60;97.40
54824;DHT22;40724;53.196;5.980;2023-09-19T13:36:46;19.60;97.50
54824;DHT22;40724;53.196;5.980;2023-09-19T13:39:16;19.60;97.50
54824;DHT22;40724;53.196;5.980;2023-09-19T13:41:45;19.60;97.50
54824;DHT22;40724;53.196;5.980;2023-09-19T13:44:12;19.60;97.50
54824;DHT22;40724;53.196;5.980;2023-09-19T13:46:38;19.60;97.50
54824;DHT22;40724;53.196;5.980;2023-09-19T13:49:04;19.60;97.50
54824;DHT22;40724;53.196;5.980;2023-09-19T13:51:31;19.60;97.50
54824;DHT22;40724;53.196;5.980;2023-09-19T13:53:57;19.60;97.50
54824;DHT22;40724;53.196;5.980;2023-09-19T13:56:22;19.60;97.50
54824;DHT22;40724;53.196;5.980;2023-09-19T13:58:49;19.60;97.50
54824;DHT22;40724;53.196;5.980;2023-09-19T14:01:15;19.60;97.60
54824;DHT22;40724;53.196;5.980;2023-09-19T14:03:42;19.60;97.60
54824;DHT22;40724;53.196;5.980;2023-09-19T14:06:18;19.60;97.60
54824;DHT22;40724;53.196;5.980;2023-09-19T14:08:44;19.60;97.70
54824;DHT22;40724;53.196;5.980;2023-09-19T14:11:13;19.60;97.70
54824;DHT22;40724;53.196;5.980;2023-09-19T14:13:43;19.60;97.70
54824;DHT22;40724;53.196;5.980;2023-09-19T14:16:15;19.50;97.70
54824;DHT22;40724;53.196;5.980;2023-09-19T14:18:41;19.60;97.70
54824;DHT22;40724;53.196;5.980;2023-09-19T14:21:07;19.50;97.80
54824;DHT22;40724;53.196;5.980;2023-09-19T14:23:39;19.50;97.90
54824;DHT22;40724;53.196;5.980;2023-09-19T14:26:07;19.50;97.90
